createdAt,value
2017-12-09T00:01:36.479Z,3.00
2017-12-09T00:04:05.595Z,2.97
2017-12-09T00:06:33.923Z,3.47
2017-12-09T00:09:02.244Z,3.33
2017-12-09T00:11:30.582Z,3.20
2017-12-09T00:13:58.909Z,3.20
2017-12-09T00:16:27.223Z,2.73
2017-12-09T00:18:55.561Z,2.33
2017-12-09T00:21:23.872Z,2.60
2017-12-09T00:23:52.209Z,3.50
2017-12-09T00:26:20.560Z,2.47
2017-12-09T00:28:48.876Z,2.80
2017-12-09T00:31:17.191Z,3.10
2017-12-09T00:33:45.529Z,2.77
2017-12-09T00:36:13.839Z,2.73
2017-12-09T00:38:42.175Z,3.60
2017-12-09T00:41:10.503Z,2.87
2017-12-09T00:43:38.805Z,3.43
2017-12-09T00:46:07.886Z,3.80
2017-12-09T00:48:36.211Z,3.17
2017-12-09T00:51:04.523Z,2.60
2017-12-09T00:53:32.836Z,3.43
2017-12-09T00:56:01.947Z,2.90
2017-12-09T00:58:30.283Z,3.70
2017-12-09T01:00:58.591Z,3.03
2017-12-09T01:03:26.931Z,4.63
2017-12-09T01:05:55.252Z,3.13
2017-12-09T01:08:24.360Z,3.70
2017-12-09T01:10:52.706Z,3.53
2017-12-09T01:13:21.006Z,3.90
2017-12-09T01:16:06.953Z,3.97
2017-12-09T01:18:52.879Z,3.57
2017-12-09T01:21:22.000Z,3.97
2017-12-09T01:23:50.319Z,3.70
2017-12-09T01:26:18.639Z,3.00
2017-12-09T01:28:47.743Z,2.83
2017-12-09T01:31:16.079Z,3.37
2017-12-09T01:33:44.382Z,3.50
2017-12-09T01:36:13.456Z,3.50
2017-12-09T01:38:41.804Z,3.47
2017-12-09T01:41:10.130Z,3.83
2017-12-09T01:43:39.205Z,3.33
2017-12-09T01:46:07.543Z,3.43
2017-12-09T01:48:35.861Z,4.27
2017-12-09T01:51:04.188Z,4.50
2017-12-09T01:53:32.527Z,5.00
2017-12-09T01:56:01.609Z,4.50
2017-12-09T01:58:29.958Z,4.80
2017-12-09T02:00:58.304Z,5.20
2017-12-09T02:03:26.637Z,5.30
2017-12-09T02:05:54.961Z,5.60
2017-12-09T02:08:23.315Z,5.73
2017-12-09T02:10:52.411Z,5.23
2017-12-09T02:13:21.488Z,5.77
2017-12-09T02:15:49.924Z,5.50
2017-12-09T02:18:18.243Z,6.13
2017-12-09T02:20:46.556Z,6.73
2017-12-09T02:23:14.968Z,7.17
2017-12-09T02:25:43.293Z,6.87
2017-12-09T02:28:11.607Z,6.67
2017-12-09T02:30:39.975Z,6.77
2017-12-09T02:33:08.278Z,6.70
2017-12-09T02:35:36.594Z,7.90
2017-12-09T02:38:04.929Z,7.17
2017-12-09T02:40:33.263Z,7.33
2017-12-09T02:43:02.356Z,7.37
2017-12-09T02:45:31.455Z,7.83
2017-12-09T02:48:00.675Z,6.63
2017-12-09T02:50:28.984Z,7.30
2017-12-09T02:52:57.323Z,6.80
2017-12-09T02:55:26.400Z,7.00
2017-12-09T02:57:55.503Z,6.30
2017-12-09T03:00:24.604Z,6.77
2017-12-09T03:02:53.672Z,7.10
2017-12-09T03:05:21.995Z,7.57
2017-12-09T03:07:50.339Z,7.80
2017-12-09T03:10:18.653Z,7.10
2017-12-09T03:12:46.971Z,7.10
2017-12-09T03:15:15.342Z,7.30
2017-12-09T03:17:43.659Z,7.30
2017-12-09T03:20:12.739Z,7.60
2017-12-09T03:22:41.084Z,7.20
2017-12-09T03:25:09.407Z,7.67
2017-12-09T03:27:38.492Z,6.60
2017-12-09T03:30:06.838Z,6.70
2017-12-09T03:32:35.157Z,6.43
2017-12-09T03:35:04.249Z,7.47
2017-12-09T03:37:32.609Z,7.23
2017-12-09T03:40:00.933Z,7.33
2017-12-09T03:42:29.245Z,5.97
2017-12-09T03:44:57.583Z,6.97
2017-12-09T03:47:25.903Z,6.57
2017-12-09T03:49:54.233Z,6.60
2017-12-09T03:52:22.567Z,6.00
2017-12-09T03:54:50.908Z,6.07
2017-12-09T03:57:19.217Z,5.77
2017-12-09T03:59:47.558Z,5.80
2017-12-09T04:02:15.881Z,6.20
2017-12-09T04:04:44.203Z,5.90
2017-12-09T04:07:12.575Z,5.20
2017-12-09T04:09:41.650Z,4.63
2017-12-09T04:12:10.757Z,5.20
2017-12-09T04:14:39.874Z,4.67
2017-12-09T04:17:08.955Z,5.17
2017-12-09T04:19:38.068Z,4.70
2017-12-09T04:22:06.375Z,3.80
2017-12-09T04:24:34.684Z,4.63
2017-12-09T04:27:03.070Z,4.70
2017-12-09T04:29:32.195Z,4.63
2017-12-09T04:32:00.576Z,5.30
2017-12-09T04:34:28.935Z,4.43
2017-12-09T04:36:58.045Z,4.70
2017-12-09T04:39:26.364Z,4.20
2017-12-09T04:41:54.727Z,3.80
2017-12-09T04:44:23.043Z,3.47
2017-12-09T04:46:51.364Z,4.10
2017-12-09T04:49:19.732Z,4.50
2017-12-09T04:51:48.042Z,4.23
2017-12-09T04:54:16.351Z,4.63
2017-12-09T04:56:44.689Z,3.57
2017-12-09T04:59:13.003Z,3.20
2017-12-09T05:01:41.351Z,3.83
2017-12-09T05:04:09.679Z,4.23
2017-12-09T05:06:38.761Z,2.93
2017-12-09T05:09:07.855Z,4.13
2017-12-09T05:11:36.212Z,3.70
2017-12-09T05:14:04.527Z,4.10
2017-12-09T05:16:33.631Z,3.20
2017-12-09T05:19:02.753Z,4.00
2017-12-09T05:21:31.100Z,3.37
2017-12-09T05:24:00.191Z,3.07
2017-12-09T05:26:29.335Z,2.70
2017-12-09T05:28:57.664Z,2.90
2017-12-09T05:31:26.788Z,2.70
2017-12-09T05:33:55.137Z,2.97
2017-12-09T05:36:24.231Z,3.30
2017-12-09T05:38:53.329Z,3.07
2017-12-09T05:41:21.664Z,3.47
2017-12-09T05:43:49.995Z,3.67
2017-12-09T05:46:19.191Z,2.50
2017-12-09T05:48:47.530Z,3.70
2017-12-09T05:51:15.858Z,3.10
2017-12-09T05:53:44.203Z,2.70
2017-12-09T05:56:12.537Z,3.57
2017-12-09T05:58:40.843Z,3.67
2017-12-09T06:01:09.155Z,2.23
2017-12-09T06:03:37.508Z,3.77
2017-12-09T06:06:05.836Z,2.70
2017-12-09T06:08:34.160Z,2.83
2017-12-09T06:11:02.491Z,3.77
2017-12-09T06:13:30.799Z,3.30
2017-12-09T06:15:59.136Z,3.40
2017-12-09T06:18:27.468Z,3.37
2017-12-09T06:20:55.787Z,3.20
2017-12-09T06:23:24.116Z,2.80
2017-12-09T06:25:52.445Z,3.00
2017-12-09T06:28:20.760Z,2.53
2017-12-09T06:30:49.114Z,3.13
2017-12-09T06:33:17.418Z,3.57
2017-12-09T06:35:45.734Z,2.60
2017-12-09T06:38:14.835Z,3.73
2017-12-09T06:40:43.964Z,3.40
2017-12-09T06:43:12.276Z,2.90
2017-12-09T06:45:40.620Z,2.70
2017-12-09T06:48:08.931Z,2.93
2017-12-09T06:50:37.240Z,2.57
2017-12-09T06:53:06.340Z,3.57
2017-12-09T06:55:35.419Z,3.13
2017-12-09T06:58:04.503Z,2.40
2017-12-09T07:00:32.882Z,3.20
2017-12-09T07:03:01.200Z,3.03
2017-12-09T07:05:29.523Z,3.20
2017-12-09T07:07:57.871Z,3.20
2017-12-09T07:10:26.170Z,3.23
2017-12-09T07:12:54.475Z,3.37
2017-12-09T07:15:22.811Z,3.07
2017-12-09T07:17:51.120Z,3.53
2017-12-09T07:20:19.426Z,3.60
2017-12-09T07:22:48.529Z,4.17
2017-12-09T07:25:16.834Z,3.67
2017-12-09T07:27:45.135Z,3.63
2017-12-09T07:30:13.476Z,3.97
2017-12-09T07:32:41.787Z,4.27
2017-12-09T07:35:10.104Z,4.53
2017-12-09T07:37:38.452Z,4.33
2017-12-09T07:40:06.777Z,3.40
2017-12-09T07:42:35.091Z,4.70
2017-12-09T07:45:03.419Z,3.63
2017-12-09T07:47:32.496Z,4.40
2017-12-09T07:50:00.799Z,3.87
2017-12-09T07:52:29.128Z,3.87
2017-12-09T07:54:58.212Z,4.07
2017-12-09T07:57:26.515Z,3.80
2017-12-09T07:59:54.855Z,4.37
2017-12-09T08:02:23.159Z,4.30
2017-12-09T08:04:51.460Z,4.97
2017-12-09T08:07:20.851Z,4.20
2017-12-09T08:09:49.160Z,4.87
2017-12-09T08:12:18.234Z,4.87
2017-12-09T08:14:47.355Z,5.50
2017-12-09T08:17:15.663Z,4.43
2017-12-09T08:19:43.980Z,5.50
2017-12-09T08:22:12.328Z,5.37
2017-12-09T08:24:40.639Z,5.70
2017-12-09T08:27:08.948Z,6.50
2017-12-09T08:29:37.304Z,6.70
2017-12-09T08:32:06.383Z,5.27
2017-12-09T08:34:34.708Z,5.43
2017-12-09T08:37:03.058Z,5.30
2017-12-09T08:39:32.127Z,4.80
2017-12-09T08:42:00.438Z,3.90
2017-12-09T08:44:28.775Z,4.47
2017-12-09T08:46:57.110Z,4.80
2017-12-09T08:49:25.418Z,4.43
2017-12-09T08:51:53.751Z,4.17
2017-12-09T08:54:22.079Z,5.10
2017-12-09T08:56:50.387Z,3.80
2017-12-09T08:59:19.504Z,4.20
2017-12-09T09:01:47.815Z,3.90
2017-12-09T09:04:16.110Z,3.60
2017-12-09T09:06:44.436Z,3.20
2017-12-09T09:09:12.759Z,3.10
2017-12-09T09:11:41.083Z,4.57
2017-12-09T09:14:09.391Z,3.30
2017-12-09T09:16:37.696Z,3.37
2017-12-09T09:19:06.062Z,3.77
2017-12-09T09:21:34.388Z,3.60
2017-12-09T09:24:03.469Z,3.67
2017-12-09T09:26:31.888Z,4.57
2017-12-09T09:29:00.381Z,4.80
2017-12-09T09:31:28.716Z,4.30
2017-12-09T09:33:57.898Z,4.57
2017-12-09T09:36:26.224Z,4.67
2017-12-09T09:38:54.552Z,4.63
2017-12-09T09:41:22.908Z,4.70
2017-12-09T09:43:51.236Z,4.80
2017-12-09T09:46:19.579Z,4.47
2017-12-09T09:48:47.912Z,4.07
2017-12-09T09:51:16.267Z,4.60
2017-12-09T09:53:44.643Z,5.10
2017-12-09T09:56:13.159Z,4.00
2017-12-09T09:58:41.483Z,4.30
2017-12-09T10:01:09.915Z,4.50
2017-12-09T10:03:38.434Z,4.80
2017-12-09T10:06:06.781Z,4.30
2017-12-09T10:08:35.131Z,4.67
2017-12-09T10:11:03.454Z,4.90
2017-12-09T10:13:31.847Z,4.70
2017-12-09T10:16:00.411Z,5.70
2017-12-09T10:18:28.808Z,5.50
2017-12-09T10:20:57.338Z,5.20
2017-12-09T10:23:25.769Z,6.60
2017-12-09T10:25:54.113Z,5.73
2017-12-09T10:28:22.484Z,5.60
2017-12-09T10:30:50.998Z,5.33
2017-12-09T10:33:19.384Z,6.10
2017-12-09T10:35:47.840Z,6.40
2017-12-09T10:38:16.194Z,5.70
2017-12-09T10:40:44.554Z,5.37
2017-12-09T10:43:13.956Z,5.03
2017-12-09T10:45:44.348Z,5.40
2017-12-09T10:48:12.829Z,7.10
2017-12-09T10:50:41.366Z,4.60
2017-12-09T10:53:10.154Z,5.40
2017-12-09T10:55:38.635Z,10.80
2017-12-09T10:58:07.112Z,4.63
2017-12-09T11:00:35.635Z,4.70
2017-12-09T11:03:04.124Z,4.20
2017-12-09T11:05:32.554Z,4.90
2017-12-09T11:08:01.043Z,4.30
2017-12-09T11:10:29.754Z,4.63
2017-12-09T11:12:58.188Z,3.73
2017-12-09T11:15:27.536Z,3.77
2017-12-09T11:17:56.734Z,4.50
2017-12-09T11:20:25.084Z,4.37
2017-12-09T11:22:53.491Z,4.30
2017-12-09T11:25:21.952Z,4.77
2017-12-09T11:27:50.465Z,4.20
2017-12-09T11:30:19.032Z,4.20
2017-12-09T11:32:47.426Z,4.47
2017-12-09T11:35:15.875Z,4.40
2017-12-09T11:37:44.205Z,3.80
2017-12-09T11:40:12.516Z,4.23
2017-12-09T11:42:41.587Z,4.20
2017-12-09T11:45:10.007Z,4.33
2017-12-09T11:47:39.187Z,4.77
2017-12-09T11:50:07.493Z,4.37
2017-12-09T11:52:35.824Z,3.67
2017-12-09T11:55:05.173Z,3.80
2017-12-09T11:57:33.477Z,5.20
2017-12-09T12:00:01.826Z,5.20
2017-12-09T12:02:30.135Z,4.27
2017-12-09T12:04:58.447Z,4.90
2017-12-09T12:07:27.534Z,5.40
2017-12-09T12:09:56.639Z,5.83
2017-12-09T12:12:24.960Z,6.73
2017-12-09T12:14:54.069Z,6.30
2017-12-09T12:17:22.399Z,6.97
2017-12-09T12:19:50.724Z,6.30
2017-12-09T12:22:19.819Z,6.37
2017-12-09T12:24:48.159Z,6.20
2017-12-09T12:27:16.474Z,5.63
2017-12-09T12:29:44.786Z,4.90
2017-12-09T12:32:13.897Z,6.40
2017-12-09T12:34:42.218Z,6.00
2017-12-09T12:37:10.539Z,5.43
2017-12-09T12:39:39.659Z,5.60
2017-12-09T12:42:07.971Z,5.30
2017-12-09T12:44:36.284Z,6.40
2017-12-09T12:47:05.396Z,5.93
2017-12-09T12:49:33.722Z,7.10
2017-12-09T12:52:02.031Z,6.77
2017-12-09T12:54:30.359Z,7.40
2017-12-09T12:56:58.682Z,7.47
2017-12-09T12:59:27.015Z,6.53
2017-12-09T13:01:55.331Z,6.83
2017-12-09T13:04:23.643Z,7.43
2017-12-09T13:06:51.976Z,7.60
2017-12-09T13:09:20.299Z,6.83
2017-12-09T13:11:48.664Z,8.60
2017-12-09T13:14:17.771Z,8.70
2017-12-09T13:16:46.110Z,8.43
2017-12-09T13:19:14.437Z,9.17
2017-12-09T13:21:42.783Z,7.37
2017-12-09T13:24:11.877Z,7.73
2017-12-09T13:26:40.193Z,9.40
2017-12-09T13:29:08.520Z,9.10
2017-12-09T13:31:36.839Z,7.73
2017-12-09T13:34:05.145Z,8.13
2017-12-09T13:36:33.510Z,9.00
2017-12-09T13:39:01.889Z,8.13
2017-12-09T13:41:30.243Z,10.23
2017-12-09T13:43:58.564Z,8.90
2017-12-09T13:46:26.880Z,9.10
2017-12-09T13:48:55.979Z,9.10
2017-12-09T13:51:25.056Z,8.70
2017-12-09T13:53:53.414Z,8.87
2017-12-09T13:56:21.751Z,9.53
2017-12-09T13:58:50.107Z,8.10
2017-12-09T14:01:19.201Z,8.30
2017-12-09T14:03:48.319Z,8.70
2017-12-09T14:06:16.635Z,9.03
2017-12-09T14:08:44.988Z,9.20
2017-12-09T14:11:13.343Z,8.73
2017-12-09T14:13:41.685Z,10.00
2017-12-09T14:16:10.004Z,10.20
2017-12-09T14:18:38.347Z,10.23
2017-12-09T14:21:06.683Z,10.03
2017-12-09T14:23:35.000Z,10.93
2017-12-09T14:26:03.351Z,11.30
2017-12-09T14:28:31.666Z,10.30
2017-12-09T14:31:00.012Z,11.27
2017-12-09T14:33:28.364Z,11.97
2017-12-09T14:35:56.687Z,10.93
2017-12-09T14:38:25.027Z,11.40
2017-12-09T14:40:53.638Z,10.90
2017-12-09T14:43:21.986Z,11.73
2017-12-09T14:45:50.307Z,12.30
2017-12-09T14:48:18.648Z,12.23
2017-12-09T14:50:46.967Z,11.60
2017-12-09T14:53:15.288Z,10.80
2017-12-09T14:55:43.647Z,11.07
2017-12-09T14:58:12.748Z,10.57
2017-12-09T15:00:41.091Z,10.93
2017-12-09T15:03:09.608Z,10.60
2017-12-09T15:05:37.985Z,11.37
2017-12-09T15:08:07.078Z,12.53
2017-12-09T15:10:35.432Z,12.37
2017-12-09T15:13:03.747Z,12.80
2017-12-09T15:15:32.083Z,12.13
2017-12-09T15:18:00.428Z,12.40
2017-12-09T15:20:28.748Z,13.10
2017-12-09T15:22:57.092Z,12.20
2017-12-09T15:25:25.429Z,14.33
2017-12-09T15:27:53.739Z,13.70
2017-12-09T15:30:22.053Z,14.10
2017-12-09T15:32:50.383Z,13.57
2017-12-09T15:35:18.696Z,14.77
2017-12-09T15:37:47.017Z,14.23
2017-12-09T15:40:15.339Z,13.63
2017-12-09T15:42:43.655Z,12.37
2017-12-09T15:45:12.755Z,12.90
2017-12-09T15:47:41.836Z,13.20
2017-12-09T15:50:10.962Z,12.97
2017-12-09T15:52:40.060Z,13.13
2017-12-09T15:55:08.379Z,12.07
2017-12-09T15:57:40.184Z,13.93
2017-12-09T16:00:10.212Z,13.13
2017-12-09T16:02:40.971Z,13.33
2017-12-09T16:05:10.277Z,14.33
2017-12-09T16:07:38.608Z,14.13
2017-12-09T16:10:07.752Z,14.30
2017-12-09T16:12:36.892Z,15.10
2017-12-09T16:15:05.979Z,13.10
2017-12-09T16:17:34.332Z,12.53
2017-12-09T16:20:02.687Z,11.77
2017-12-09T16:22:31.019Z,12.57
2017-12-09T16:24:59.369Z,12.37
2017-12-09T16:27:27.728Z,13.00
2017-12-09T16:29:56.091Z,13.50
2017-12-09T16:32:24.439Z,13.47
2017-12-09T16:34:53.536Z,10.63
2017-12-09T16:37:21.883Z,12.47
2017-12-09T16:39:50.235Z,10.00
2017-12-09T16:42:18.563Z,11.73
2017-12-09T16:44:46.899Z,11.43
2017-12-09T16:47:15.245Z,10.20
2017-12-09T16:49:43.555Z,10.13
2017-12-09T16:52:11.883Z,11.30
2017-12-09T16:54:40.993Z,11.40
2017-12-09T16:57:09.317Z,9.23
2017-12-09T16:59:37.639Z,10.90
2017-12-09T17:02:06.725Z,11.50
2017-12-09T17:04:36.119Z,11.37
2017-12-09T17:07:05.263Z,10.30
2017-12-09T17:09:33.579Z,12.03
2017-12-09T17:12:01.923Z,10.37
2017-12-09T17:14:30.275Z,10.90
2017-12-09T17:16:58.584Z,10.00
2017-12-09T17:19:26.903Z,9.83
2017-12-09T17:21:56.031Z,10.77
2017-12-09T17:24:24.359Z,9.30
2017-12-09T17:26:52.679Z,9.90
2017-12-09T17:29:21.028Z,10.07
2017-12-09T17:31:49.400Z,10.63
2017-12-09T17:34:17.715Z,11.17
2017-12-09T17:36:46.055Z,10.50
2017-12-09T17:39:14.379Z,11.60
2017-12-09T17:41:42.715Z,9.87
2017-12-09T17:44:11.862Z,10.50
2017-12-09T17:46:40.188Z,11.10
2017-12-09T17:49:08.544Z,11.27
2017-12-09T17:51:36.907Z,12.93
2017-12-09T17:54:05.232Z,11.33
2017-12-09T17:56:33.539Z,10.20
2017-12-09T17:59:01.876Z,11.20
2017-12-09T18:01:30.239Z,10.03
2017-12-09T18:03:58.567Z,10.30
2017-12-09T18:06:27.669Z,10.10
2017-12-09T18:08:55.997Z,10.63
2017-12-09T18:11:24.342Z,10.30
2017-12-09T18:13:52.677Z,9.93
2017-12-09T18:16:21.781Z,10.10
2017-12-09T18:18:50.868Z,10.30
2017-12-09T18:21:19.972Z,10.80
2017-12-09T18:23:48.296Z,10.20
2017-12-09T18:26:16.618Z,9.53
2017-12-09T18:28:45.763Z,9.47
2017-12-09T18:31:14.095Z,7.80
2017-12-09T18:33:43.187Z,9.77
2017-12-09T18:36:12.320Z,53.83
2017-12-09T18:38:40.635Z,9.40
2017-12-09T18:41:08.948Z,9.70
2017-12-09T18:43:38.047Z,9.10
2017-12-09T18:46:07.125Z,7.70
2017-12-09T18:48:35.463Z,8.47
2017-12-09T18:51:03.800Z,7.00
2017-12-09T18:53:32.938Z,7.60
2017-12-09T18:56:01.223Z,8.47
2017-12-09T18:58:29.555Z,7.37
2017-12-09T19:00:57.883Z,7.90
2017-12-09T19:03:26.195Z,8.20
2017-12-09T19:05:55.303Z,7.77
2017-12-09T19:08:24.410Z,6.77
2017-12-09T19:10:53.524Z,7.80
2017-12-09T19:13:21.865Z,8.67
2017-12-09T19:15:50.947Z,8.33
2017-12-09T19:18:19.263Z,8.30
2017-12-09T19:20:47.601Z,7.87
2017-12-09T19:23:15.913Z,7.70
2017-12-09T19:25:44.228Z,7.97
2017-12-09T19:28:12.581Z,7.30
2017-12-09T19:30:40.876Z,6.10
2017-12-09T19:33:09.251Z,7.00
2017-12-09T19:35:37.557Z,5.83
2017-12-09T19:38:05.872Z,5.77
2017-12-09T19:40:34.310Z,6.20
2017-12-09T19:43:02.624Z,5.73
2017-12-09T19:45:30.936Z,6.33
2017-12-09T19:47:59.290Z,5.63
2017-12-09T19:50:27.604Z,6.07
2017-12-09T19:52:55.919Z,5.27
2017-12-09T19:55:25.038Z,5.70
2017-12-09T19:57:53.360Z,6.13
2017-12-09T20:00:21.687Z,7.00
2017-12-09T20:02:50.032Z,6.83
2017-12-09T20:05:18.347Z,6.13
2017-12-09T20:07:46.680Z,6.53
2017-12-09T20:10:15.044Z,5.80
2017-12-09T20:12:43.364Z,5.33
2017-12-09T20:15:12.435Z,5.40
2017-12-09T20:17:40.779Z,6.40
2017-12-09T20:20:09.093Z,6.00
2017-12-09T20:22:37.399Z,5.97
2017-12-09T20:25:06.507Z,6.20
2017-12-09T20:27:34.823Z,6.17
2017-12-09T20:30:03.183Z,5.80
2017-12-09T20:32:31.499Z,6.20
2017-12-09T20:34:59.804Z,5.87
2017-12-09T20:37:28.900Z,6.73
2017-12-09T20:39:57.971Z,5.73
2017-12-09T20:42:26.279Z,5.40
2017-12-09T20:44:54.617Z,4.40
2017-12-09T20:47:22.939Z,4.80
2017-12-09T20:49:51.260Z,5.37
2017-12-09T20:52:19.591Z,5.37
2017-12-09T20:54:47.908Z,6.10
2017-12-09T20:57:16.219Z,6.20
2017-12-09T20:59:44.610Z,5.87
2017-12-09T21:02:13.704Z,4.90
2017-12-09T21:04:42.787Z,5.83
2017-12-09T21:07:11.895Z,5.90
2017-12-09T21:09:40.969Z,6.50
2017-12-09T21:12:09.279Z,7.03
2017-12-09T21:14:37.617Z,8.50
2017-12-09T21:17:05.929Z,8.17
2017-12-09T21:19:35.008Z,7.77
2017-12-09T21:22:04.124Z,8.13
2017-12-09T21:24:32.442Z,9.23
2017-12-09T21:27:00.768Z,10.20
2017-12-09T21:29:29.106Z,9.90
2017-12-09T21:31:57.443Z,8.70
2017-12-09T21:34:25.763Z,8.47
2017-12-09T21:36:54.097Z,10.23
2017-12-09T21:39:22.428Z,9.27
2017-12-09T21:41:50.773Z,8.90
2017-12-09T21:44:19.117Z,8.97
2017-12-09T21:46:48.193Z,8.63
2017-12-09T21:49:16.500Z,9.03
2017-12-09T21:51:44.854Z,9.40
2017-12-09T21:54:13.928Z,8.10
2017-12-09T21:56:42.231Z,6.77
2017-12-09T21:59:11.343Z,6.80
2017-12-09T22:01:39.657Z,6.90
2017-12-09T22:04:07.976Z,7.23
2017-12-09T22:06:37.071Z,7.50
2017-12-09T22:09:06.156Z,6.57
2017-12-09T22:11:34.491Z,6.87
2017-12-09T22:14:02.820Z,7.70
2017-12-09T22:16:31.120Z,6.63
2017-12-09T22:18:59.461Z,7.03
2017-12-09T22:21:27.778Z,6.17
2017-12-09T22:23:56.093Z,7.67
2017-12-09T22:26:24.427Z,7.03
2017-12-09T22:28:52.741Z,7.13
2017-12-09T22:31:21.043Z,7.07
2017-12-09T22:33:49.401Z,6.90
2017-12-09T22:36:17.706Z,6.50
2017-12-09T22:38:46.054Z,7.80
2017-12-09T22:41:14.413Z,6.40
2017-12-09T22:43:42.720Z,6.90
2017-12-09T22:46:11.027Z,6.73
2017-12-09T22:48:39.361Z,6.27
2017-12-09T22:51:07.682Z,6.00
2017-12-09T22:53:36.808Z,5.97
2017-12-09T22:56:05.159Z,6.07
2017-12-09T22:58:34.240Z,5.90
2017-12-09T23:01:02.557Z,5.67
2017-12-09T23:03:30.908Z,6.10
2017-12-09T23:05:59.233Z,6.70
2017-12-09T23:08:27.543Z,6.73
2017-12-09T23:10:55.879Z,6.17
2017-12-09T23:13:24.183Z,7.40
2017-12-09T23:15:52.491Z,7.60
2017-12-09T23:18:20.835Z,6.70
2017-12-09T23:20:49.139Z,7.60
2017-12-09T23:23:17.451Z,8.23
2017-12-09T23:25:45.799Z,7.03
2017-12-09T23:28:14.938Z,6.80
2017-12-09T23:30:43.269Z,5.50
2017-12-09T23:33:11.604Z,6.70
2017-12-09T23:35:39.938Z,6.10
2017-12-09T23:38:09.028Z,6.23
2017-12-09T23:40:37.363Z,6.60
2017-12-09T23:43:05.676Z,6.20
2017-12-09T23:45:33.994Z,7.33
2017-12-09T23:48:02.331Z,6.57
2017-12-09T23:50:30.650Z,5.63
2017-12-09T23:52:58.959Z,6.33
2017-12-09T23:55:28.157Z,6.47
2017-12-09T23:57:56.460Z,5.83
